sensor_id;sensor_type;location;lat;lon;timestamp;pressure;altitude;pressure_sealevel;temperature;humidity
1652;BME280;823;49.028;8.454;2022-08-07T00:03:38;101011.56;;;22.31;31.40
1652;BME280;823;49.028;8.454;2022-08-07T00:08:38;101018.28;;;21.98;32.68
1652;BME280;823;49.028;8.454;2022-08-07T00:13:39;101021.41;;;22.03;32.26
1652;BME280;823;49.028;8.454;2022-08-07T00:18:41;101017.84;;;22.04;32.20
1652;BME280;823;49.028;8.454;2022-08-07T00:23:41;101018.91;;;22.01;32.56
1652;BME280;823;49.028;8.454;2022-08-07T00:28:42;101011.38;;;21.71;33.25
1652;BME280;823;49.028;8.454;2022-08-07T00:33:43;101014.22;;;21.68;33.47
1652;BME280;823;49.028;8.454;2022-08-07T00:38:44;101016.56;;;21.72;33.08
1652;BME280;823;49.028;8.454;2022-08-07T00:43:44;101016.00;;;21.80;32.18
1652;BME280;823;49.028;8.454;2022-08-07T00:48:44;101009.09;;;21.66;32.09
1652;BME280;823;49.028;8.454;2022-08-07T00:53:45;101002.88;;;21.54;32.55
1652;BME280;823;49.028;8.454;2022-08-07T00:58:45;101008.31;;;21.51;32.68
1652;BME280;823;49.028;8.454;2022-08-07T01:03:46;100999.81;;;21.35;32.88
1652;BME280;823;49.028;8.454;2022-08-07T01:08:47;101009.91;;;21.02;34.21
1652;BME280;823;49.028;8.454;2022-08-07T01:13:48;101016.53;;;20.95;34.42
1652;BME280;823;49.028;8.454;2022-08-07T01:18:48;101015.25;;;21.01;34.61
1652;BME280;823;49.028;8.454;2022-08-07T01:23:49;101016.94;;;21.02;34.53
1652;BME280;823;49.028;8.454;2022-08-07T01:28:50;101022.81;;;20.92;34.61
1652;BME280;823;49.028;8.454;2022-08-07T01:33:52;101013.28;;;21.17;34.30
1652;BME280;823;49.028;8.454;2022-08-07T01:38:54;101015.28;;;21.26;34.19
1652;BME280;823;49.028;8.454;2022-08-07T01:43:55;101017.38;;;20.68;35.28
1652;BME280;823;49.028;8.454;2022-08-07T01:48:55;101017.47;;;20.67;35.21
1652;BME280;823;49.028;8.454;2022-08-07T01:53:57;101019.94;;;20.55;35.43
1652;BME280;823;49.028;8.454;2022-08-07T01:59:05;101014.34;;;20.47;35.76
1652;BME280;823;49.028;8.454;2022-08-07T02:04:27;101009.31;;;20.30;36.18
1652;BME280;823;49.028;8.454;2022-08-07T02:09:30;100999.63;;;20.17;36.34
1652;BME280;823;49.028;8.454;2022-08-07T02:14:34;100991.81;;;20.16;36.24
1652;BME280;823;49.028;8.454;2022-08-07T02:19:35;100992.44;;;20.06;36.69
1652;BME280;823;49.028;8.454;2022-08-07T02:24:39;100995.00;;;20.21;36.32
1652;BME280;823;49.028;8.454;2022-08-07T02:29:40;100982.84;;;20.60;35.41
1652;BME280;823;49.028;8.454;2022-08-07T02:34:41;100976.22;;;20.00;36.81
1652;BME280;823;49.028;8.454;2022-08-07T02:39:45;100971.81;;;20.00;36.87
1652;BME280;823;49.028;8.454;2022-08-07T02:44:48;100973.94;;;20.08;36.64
1652;BME280;823;49.028;8.454;2022-08-07T02:49:49;100980.81;;;19.96;36.67
1652;BME280;823;49.028;8.454;2022-08-07T02:54:50;100967.06;;;19.93;37.01
1652;BME280;823;49.028;8.454;2022-08-07T02:59:51;100957.50;;;19.92;36.67
1652;BME280;823;49.028;8.454;2022-08-07T03:04:52;100955.59;;;19.94;36.86
1652;BME280;823;49.028;8.454;2022-08-07T03:09:54;100958.63;;;19.73;37.21
1652;BME280;823;49.028;8.454;2022-08-07T03:14:55;100967.91;;;19.21;37.89
1652;BME280;823;49.028;8.454;2022-08-07T03:19:56;100959.75;;;18.81;39.02
1652;BME280;823;49.028;8.454;2022-08-07T03:24:59;100969.25;;;18.67;39.49
1652;BME280;823;49.028;8.454;2022-08-07T03:30:00;100984.75;;;18.56;39.72
1652;BME280;823;49.028;8.454;2022-08-07T03:35:03;100973.38;;;18.41;40.44
1652;BME280;823;49.028;8.454;2022-08-07T03:40:04;100972.53;;;18.25;41.19
1652;BME280;823;49.028;8.454;2022-08-07T03:45:06;100978.72;;;18.24;40.97
1652;BME280;823;49.028;8.454;2022-08-07T03:50:06;100986.56;;;18.08;41.17
1652;BME280;823;49.028;8.454;2022-08-07T03:55:07;100992.06;;;18.03;42.07
1652;BME280;823;49.028;8.454;2022-08-07T04:00:08;100993.25;;;17.97;41.79
1652;BME280;823;49.028;8.454;2022-08-07T04:05:10;100986.84;;;18.03;41.86
1652;BME280;823;49.028;8.454;2022-08-07T04:10:10;100982.09;;;17.94;42.29
1652;BME280;823;49.028;8.454;2022-08-07T04:15:11;100978.47;;;17.96;41.97
1652;BME280;823;49.028;8.454;2022-08-07T04:20:12;100980.31;;;17.94;41.81
1652;BME280;823;49.028;8.454;2022-08-07T04:25:13;100988.88;;;17.80;42.23
1652;BME280;823;49.028;8.454;2022-08-07T04:30:14;100991.00;;;17.74;42.92
1652;BME280;823;49.028;8.454;2022-08-07T04:35:15;100997.59;;;17.81;43.04
1652;BME280;823;49.028;8.454;2022-08-07T04:40:15;101006.09;;;17.84;42.82
1652;BME280;823;49.028;8.454;2022-08-07T04:45:16;101017.63;;;17.98;42.47
1652;BME280;823;49.028;8.454;2022-08-07T04:50:37;101019.16;;;18.02;41.80
1652;BME280;823;49.028;8.454;2022-08-07T04:55:44;101014.28;;;17.96;42.77
1652;BME280;823;49.028;8.454;2022-08-07T05:00:52;101021.59;;;18.05;42.71
1652;BME280;823;49.028;8.454;2022-08-07T05:06:06;101026.44;;;18.13;43.45
1652;BME280;823;49.028;8.454;2022-08-07T05:11:22;101025.25;;;18.18;42.61
1652;BME280;823;49.028;8.454;2022-08-07T05:16:25;101030.22;;;18.23;42.40
1652;BME280;823;49.028;8.454;2022-08-07T05:21:29;101012.09;;;18.36;41.64
1652;BME280;823;49.028;8.454;2022-08-07T05:26:32;101028.03;;;18.47;41.01
1652;BME280;823;49.028;8.454;2022-08-07T05:31:40;101020.59;;;18.55;40.68
1652;BME280;823;49.028;8.454;2022-08-07T05:36:45;101025.88;;;18.70;41.36
1652;BME280;823;49.028;8.454;2022-08-07T05:41:46;101022.97;;;18.75;40.42
1652;BME280;823;49.028;8.454;2022-08-07T05:46:49;101037.41;;;18.98;40.09
1652;BME280;823;49.028;8.454;2022-08-07T05:51:50;101035.25;;;19.20;39.21
1652;BME280;823;49.028;8.454;2022-08-07T05:56:53;101037.25;;;19.46;38.77
1652;BME280;823;49.028;8.454;2022-08-07T06:01:55;101042.97;;;19.67;38.88
1652;BME280;823;49.028;8.454;2022-08-07T06:06:57;101043.94;;;19.80;37.63
1652;BME280;823;49.028;8.454;2022-08-07T06:11:58;101042.16;;;19.95;37.30
1652;BME280;823;49.028;8.454;2022-08-07T06:16:59;101047.53;;;20.21;36.45
1652;BME280;823;49.028;8.454;2022-08-07T06:22:01;101053.28;;;20.13;36.12
1652;BME280;823;49.028;8.454;2022-08-07T06:27:02;101052.16;;;20.45;36.18
1652;BME280;823;49.028;8.454;2022-08-07T06:32:03;101054.06;;;20.70;35.51
1652;BME280;823;49.028;8.454;2022-08-07T06:37:03;101052.09;;;21.01;35.57
1652;BME280;823;49.028;8.454;2022-08-07T06:42:20;101045.28;;;21.63;34.14
1652;BME280;823;49.028;8.454;2022-08-07T06:47:22;101042.66;;;21.63;34.33
1652;BME280;823;49.028;8.454;2022-08-07T06:52:36;101039.28;;;21.73;33.81
1652;BME280;823;49.028;8.454;2022-08-07T06:57:37;101037.56;;;21.98;34.89
1652;BME280;823;49.028;8.454;2022-08-07T07:02:38;101034.47;;;22.17;34.06
1652;BME280;823;49.028;8.454;2022-08-07T07:07:44;101032.50;;;22.45;34.52
1652;BME280;823;49.028;8.454;2022-08-07T07:13:18;101028.59;;;22.62;33.39
1652;BME280;823;49.028;8.454;2022-08-07T07:18:22;101032.53;;;22.81;33.54
1652;BME280;823;49.028;8.454;2022-08-07T07:23:25;101021.16;;;22.91;32.92
1652;BME280;823;49.028;8.454;2022-08-07T07:28:33;101025.31;;;23.07;32.81
1652;BME280;823;49.028;8.454;2022-08-07T07:33:37;101020.56;;;23.23;33.05
1652;BME280;823;49.028;8.454;2022-08-07T07:38:40;101015.50;;;23.32;34.49
1652;BME280;823;49.028;8.454;2022-08-07T07:43:42;101018.66;;;23.48;32.78
1652;BME280;823;49.028;8.454;2022-08-07T07:48:45;101013.84;;;23.64;33.12
1652;BME280;823;49.028;8.454;2022-08-07T07:53:48;101011.94;;;23.67;33.28
1652;BME280;823;49.028;8.454;2022-08-07T07:58:50;101017.00;;;23.58;33.95
1652;BME280;823;49.028;8.454;2022-08-07T08:03:52;101012.06;;;23.88;33.37
1652;BME280;823;49.028;8.454;2022-08-07T08:08:55;101005.22;;;24.08;33.69
1652;BME280;823;49.028;8.454;2022-08-07T08:13:56;101004.91;;;24.22;33.39
1652;BME280;823;49.028;8.454;2022-08-07T08:18:58;101000.63;;;24.42;33.18
1652;BME280;823;49.028;8.454;2022-08-07T08:24:04;101000.22;;;24.58;33.10
1652;BME280;823;49.028;8.454;2022-08-07T08:29:25;100999.94;;;24.73;33.38
1652;BME280;823;49.028;8.454;2022-08-07T08:34:27;100993.13;;;24.91;32.74
1652;BME280;823;49.028;8.454;2022-08-07T08:39:29;100983.59;;;25.10;33.16
1652;BME280;823;49.028;8.454;2022-08-07T08:44:47;100980.91;;;25.31;32.01
1652;BME280;823;49.028;8.454;2022-08-07T08:50:00;100987.47;;;25.58;33.10
1652;BME280;823;49.028;8.454;2022-08-07T08:55:34;100967.88;;;25.70;31.26
1652;BME280;823;49.028;8.454;2022-08-07T09:00:38;100979.31;;;25.80;31.58
1652;BME280;823;49.028;8.454;2022-08-07T09:05:52;100964.16;;;25.92;31.35
1652;BME280;823;49.028;8.454;2022-08-07T09:11:10;100966.03;;;26.21;30.66
1652;BME280;823;49.028;8.454;2022-08-07T09:16:20;100956.81;;;26.35;31.43
1652;BME280;823;49.028;8.454;2022-08-07T09:21:34;100957.63;;;26.55;30.23
1652;BME280;823;49.028;8.454;2022-08-07T09:32:08;100952.56;;;26.91;29.42
1652;BME280;823;49.028;8.454;2022-08-07T09:37:37;100955.38;;;26.90;29.44
1652;BME280;823;49.028;8.454;2022-08-07T09:42:47;100942.69;;;27.21;26.92
1652;BME280;823;49.028;8.454;2022-08-07T09:53:04;100928.28;;;27.61;24.99
1652;BME280;823;49.028;8.454;2022-08-07T10:03:55;100923.81;;;27.80;23.47
1652;BME280;823;49.028;8.454;2022-08-07T10:09:19;100907.28;;;27.86;22.09
1652;BME280;823;49.028;8.454;2022-08-07T10:47:41;100868.03;;;28.68;21.30
1652;BME280;823;49.028;8.454;2022-08-07T10:53:09;100871.25;;;28.72;21.65
1652;BME280;823;49.028;8.454;2022-08-07T10:58:25;100858.97;;;28.79;21.48
1652;BME280;823;49.028;8.454;2022-08-07T11:03:40;100852.53;;;28.90;21.61
1652;BME280;823;49.028;8.454;2022-08-07T11:08:52;100848.19;;;28.89;21.57
1652;BME280;823;49.028;8.454;2022-08-07T11:13:57;100848.22;;;28.97;20.81
1652;BME280;823;49.028;8.454;2022-08-07T11:24:38;100819.69;;;29.24;20.08
1652;BME280;823;49.028;8.454;2022-08-07T11:29:49;100822.94;;;29.01;20.65
1652;BME280;823;49.028;8.454;2022-08-07T11:35:01;100812.41;;;29.26;19.93
1652;BME280;823;49.028;8.454;2022-08-07T11:56:07;100800.47;;;29.63;18.50
1652;BME280;823;49.028;8.454;2022-08-07T12:06:48;100796.78;;;29.72;18.55
1652;BME280;823;49.028;8.454;2022-08-07T12:12:06;100794.81;;;29.91;18.87
1652;BME280;823;49.028;8.454;2022-08-07T12:17:10;100780.16;;;29.95;18.61
1652;BME280;823;49.028;8.454;2022-08-07T12:27:38;100783.09;;;30.17;17.69
1652;BME280;823;49.028;8.454;2022-08-07T12:33:00;100774.06;;;30.34;17.41
1652;BME280;823;49.028;8.454;2022-08-07T12:38:01;100771.91;;;30.46;17.21
1652;BME280;823;49.028;8.454;2022-08-07T12:43:04;100761.84;;;30.56;16.34
1652;BME280;823;49.028;8.454;2022-08-07T12:48:13;100759.75;;;30.44;17.39
1652;BME280;823;49.028;8.454;2022-08-07T12:53:32;100745.97;;;30.63;17.34
1652;BME280;823;49.028;8.454;2022-08-07T12:58:38;100747.66;;;30.64;16.43
1652;BME280;823;49.028;8.454;2022-08-07T13:20:07;100731.78;;;30.94;15.37
1652;BME280;823;49.028;8.454;2022-08-07T13:25:16;100731.59;;;31.04;15.47
1652;BME280;823;49.028;8.454;2022-08-07T13:30:21;100729.81;;;31.19;15.53
1652;BME280;823;49.028;8.454;2022-08-07T13:35:41;100713.44;;;31.22;16.54
1652;BME280;823;49.028;8.454;2022-08-07T13:45:54;100699.28;;;31.14;15.49
1652;BME280;823;49.028;8.454;2022-08-07T13:50:57;100703.22;;;31.26;15.58
1652;BME280;823;49.028;8.454;2022-08-07T13:55:59;100703.56;;;31.46;15.35
1652;BME280;823;49.028;8.454;2022-08-07T14:01:08;100683.28;;;31.52;15.35
1652;BME280;823;49.028;8.454;2022-08-07T14:06:10;100678.19;;;31.65;14.92
1652;BME280;823;49.028;8.454;2022-08-07T14:11:15;100681.78;;;31.72;14.94
1652;BME280;823;49.028;8.454;2022-08-07T14:16:16;100675.78;;;31.70;14.92
1652;BME280;823;49.028;8.454;2022-08-07T14:21:26;100681.16;;;31.85;15.50
1652;BME280;823;49.028;8.454;2022-08-07T14:26:48;100674.50;;;31.81;14.81
1652;BME280;823;49.028;8.454;2022-08-07T14:31:50;100657.72;;;31.72;15.05
1652;BME280;823;49.028;8.454;2022-08-07T14:36:51;100652.28;;;31.81;14.84
1652;BME280;823;49.028;8.454;2022-08-07T14:41:52;100658.16;;;31.76;14.68
1652;BME280;823;49.028;8.454;2022-08-07T14:46:55;100653.13;;;31.81;14.86
1652;BME280;823;49.028;8.454;2022-08-07T14:51:57;100644.00;;;31.90;14.94
1652;BME280;823;49.028;8.454;2022-08-07T14:57:00;100645.28;;;31.80;15.08
1652;BME280;823;49.028;8.454;2022-08-07T15:02:10;100639.72;;;31.66;14.86
1652;BME280;823;49.028;8.454;2022-08-07T15:07:19;100648.19;;;31.55;14.83
1652;BME280;823;49.028;8.454;2022-08-07T15:12:23;100643.19;;;31.52;15.18
1652;BME280;823;49.028;8.454;2022-08-07T15:17:31;100640.81;;;31.57;14.81
1652;BME280;823;49.028;8.454;2022-08-07T15:22:44;100635.91;;;31.46;14.72
1652;BME280;823;49.028;8.454;2022-08-07T15:27:48;100630.28;;;31.40;14.98
1652;BME280;823;49.028;8.454;2022-08-07T15:32:51;100633.03;;;31.32;15.75
1652;BME280;823;49.028;8.454;2022-08-07T15:37:54;100618.63;;;31.18;15.18
1652;BME280;823;49.028;8.454;2022-08-07T15:43:01;100620.50;;;31.33;15.07
1652;BME280;823;49.028;8.454;2022-08-07T15:53:13;100614.31;;;31.32;15.37
1652;BME280;823;49.028;8.454;2022-08-07T15:58:16;100612.84;;;31.30;14.87
1652;BME280;823;49.028;8.454;2022-08-07T16:03:21;100608.03;;;31.25;15.29
1652;BME280;823;49.028;8.454;2022-08-07T16:08:25;100610.69;;;31.25;14.45
1652;BME280;823;49.028;8.454;2022-08-07T16:13:53;100607.72;;;31.05;15.08
1652;BME280;823;49.028;8.454;2022-08-07T16:24:31;100598.38;;;31.24;15.56
1652;BME280;823;49.028;8.454;2022-08-07T16:34:51;100599.09;;;30.95;15.35
1652;BME280;823;49.028;8.454;2022-08-07T17:12:16;100601.78;;;30.71;15.52
1652;BME280;823;49.028;8.454;2022-08-07T17:17:31;100602.41;;;31.20;14.77
1652;BME280;823;49.028;8.454;2022-08-07T17:22:37;100606.09;;;31.19;15.04
1652;BME280;823;49.028;8.454;2022-08-07T17:28:30;100614.91;;;31.04;15.42
1652;BME280;823;49.028;8.454;2022-08-07T17:38:21;100618.97;;;30.37;16.37
1652;BME280;823;49.028;8.454;2022-08-07T17:43:27;100628.53;;;30.86;15.54
1652;BME280;823;49.028;8.454;2022-08-07T17:48:49;100622.69;;;30.28;17.17
1652;BME280;823;49.028;8.454;2022-08-07T17:53:56;100628.56;;;30.15;16.82
1652;BME280;823;49.028;8.454;2022-08-07T17:59:03;100626.44;;;30.11;17.53
1652;BME280;823;49.028;8.454;2022-08-07T18:04:26;100620.94;;;30.12;16.87
1652;BME280;823;49.028;8.454;2022-08-07T18:09:29;100625.78;;;30.00;17.55
1652;BME280;823;49.028;8.454;2022-08-07T18:14:58;100625.94;;;30.07;16.40
1652;BME280;823;49.028;8.454;2022-08-07T18:20:04;100628.34;;;29.94;17.07
1652;BME280;823;49.028;8.454;2022-08-07T18:25:07;100627.22;;;29.71;17.55
1652;BME280;823;49.028;8.454;2022-08-07T18:30:09;100632.22;;;29.66;17.05
1652;BME280;823;49.028;8.454;2022-08-07T18:35:20;100641.06;;;29.42;16.78
1652;BME280;823;49.028;8.454;2022-08-07T18:45:56;100656.75;;;29.29;17.89
1652;BME280;823;49.028;8.454;2022-08-07T18:51:07;100663.84;;;29.20;18.05
1652;BME280;823;49.028;8.454;2022-08-07T18:56:34;100666.38;;;29.05;17.72
1652;BME280;823;49.028;8.454;2022-08-07T19:01:44;100671.50;;;28.90;18.51
1652;BME280;823;49.028;8.454;2022-08-07T19:07:04;100674.47;;;28.79;19.58
1652;BME280;823;49.028;8.454;2022-08-07T19:17:14;100696.94;;;28.42;20.54
1652;BME280;823;49.028;8.454;2022-08-07T19:22:20;100705.16;;;28.22;20.84
1652;BME280;823;49.028;8.454;2022-08-07T19:27:24;100711.28;;;27.96;19.60
1652;BME280;823;49.028;8.454;2022-08-07T19:32:26;100706.56;;;27.82;21.49
1652;BME280;823;49.028;8.454;2022-08-07T19:37:28;100710.78;;;27.66;21.28
1652;BME280;823;49.028;8.454;2022-08-07T19:42:31;100721.28;;;27.50;22.15
1652;BME280;823;49.028;8.454;2022-08-07T19:47:38;100720.41;;;27.31;21.13
1652;BME280;823;49.028;8.454;2022-08-07T19:52:40;100725.94;;;27.20;21.67
1652;BME280;823;49.028;8.454;2022-08-07T19:57:42;100728.28;;;27.05;21.45
1652;BME280;823;49.028;8.454;2022-08-07T20:03:04;100733.97;;;26.92;21.64
1652;BME280;823;49.028;8.454;2022-08-07T20:08:12;100735.59;;;26.75;22.42
1652;BME280;823;49.028;8.454;2022-08-07T20:13:17;100743.19;;;26.60;25.10
1652;BME280;823;49.028;8.454;2022-08-07T20:18:18;100745.09;;;26.30;25.53
1652;BME280;823;49.028;8.454;2022-08-07T20:23:19;100740.31;;;26.06;27.65
1652;BME280;823;49.028;8.454;2022-08-07T20:28:20;100747.84;;;25.81;26.11
1652;BME280;823;49.028;8.454;2022-08-07T20:33:28;100736.00;;;25.66;27.07
1652;BME280;823;49.028;8.454;2022-08-07T20:38:31;100745.22;;;25.52;26.57
1652;BME280;823;49.028;8.454;2022-08-07T20:43:32;100749.22;;;25.27;28.14
1652;BME280;823;49.028;8.454;2022-08-07T20:48:35;100748.91;;;25.10;28.12
1652;BME280;823;49.028;8.454;2022-08-07T20:53:37;100748.75;;;25.02;29.21
1652;BME280;823;49.028;8.454;2022-08-07T20:58:39;100743.59;;;25.01;27.69
1652;BME280;823;49.028;8.454;2022-08-07T21:03:44;100745.78;;;24.86;29.47
1652;BME280;823;49.028;8.454;2022-08-07T21:08:55;100747.59;;;24.85;28.16
1652;BME280;823;49.028;8.454;2022-08-07T21:14:05;100742.13;;;24.77;28.62
1652;BME280;823;49.028;8.454;2022-08-07T21:19:10;100739.31;;;24.69;29.40
1652;BME280;823;49.028;8.454;2022-08-07T21:24:15;100738.69;;;24.55;28.81
1652;BME280;823;49.028;8.454;2022-08-07T21:29:20;100741.16;;;24.47;27.67
1652;BME280;823;49.028;8.454;2022-08-07T21:34:30;100743.63;;;24.39;29.61
1652;BME280;823;49.028;8.454;2022-08-07T21:39:47;100733.84;;;24.29;28.81
1652;BME280;823;49.028;8.454;2022-08-07T21:44:55;100732.78;;;24.11;29.42
1652;BME280;823;49.028;8.454;2022-08-07T21:50:07;100744.19;;;23.90;31.00
1652;BME280;823;49.028;8.454;2022-08-07T22:00:23;100748.00;;;23.65;32.50
1652;BME280;823;49.028;8.454;2022-08-07T22:05:26;100751.09;;;24.03;29.89
1652;BME280;823;49.028;8.454;2022-08-07T22:10:29;100753.47;;;24.06;29.28
1652;BME280;823;49.028;8.454;2022-08-07T22:20:53;100764.50;;;23.90;31.50
1652;BME280;823;49.028;8.454;2022-08-07T22:31:31;100766.03;;;23.81;31.33
1652;BME280;823;49.028;8.454;2022-08-07T22:36:41;100770.47;;;23.16;31.93
1652;BME280;823;49.028;8.454;2022-08-07T22:41:48;100772.53;;;22.89;34.28
1652;BME280;823;49.028;8.454;2022-08-07T22:47:09;100776.13;;;22.77;34.72
1652;BME280;823;49.028;8.454;2022-08-07T22:57:48;100773.25;;;22.57;33.40
1652;BME280;823;49.028;8.454;2022-08-07T23:35:12;100789.41;;;21.94;35.16
1652;BME280;823;49.028;8.454;2022-08-07T23:40:30;100786.13;;;21.80;35.96
1652;BME280;823;49.028;8.454;2022-08-07T23:45:53;100789.31;;;21.72;35.50
1652;BME280;823;49.028;8.454;2022-08-07T23:51:06;100787.59;;;21.47;36.15
1652;BME280;823;49.028;8.454;2022-08-07T23:56:31;100782.88;;;21.39;36.17
